createdAt,value
2022-10-02T00:00:23.191Z,16.98
2022-10-02T00:03:00.768Z,20.03
2022-10-02T00:05:45.841Z,18.92
2022-10-02T00:08:29.061Z,18.50
2022-10-02T00:11:05.991Z,21.38
2022-10-02T00:13:47.154Z,27.17
2022-10-02T00:16:34.067Z,26.13
2022-10-02T00:19:02.476Z,18.05
2022-10-02T00:21:56.931Z,21.88
2022-10-02T00:24:48.084Z,16.85
2022-10-02T00:27:46.366Z,19.75
2022-10-02T00:30:18.053Z,20.80
2022-10-02T00:33:27.011Z,28.00
2022-10-02T00:36:34.910Z,22.20
2022-10-02T00:39:22.868Z,29.25
2022-10-02T00:42:37.624Z,19.73
2022-10-02T00:45:47.166Z,24.43
2022-10-02T00:48:39.019Z,25.60
2022-10-02T00:51:38.187Z,22.08
2022-10-02T00:54:29.447Z,25.15
2022-10-02T00:57:38.156Z,22.65
2022-10-02T01:00:13.462Z,24.05
2022-10-02T01:02:56.386Z,27.13
2022-10-02T01:05:23.874Z,25.73
2022-10-02T01:07:54.766Z,27.95
2022-10-02T01:10:25.561Z,31.27
2022-10-02T01:12:55.664Z,29.10
2022-10-02T01:15:30.810Z,26.17
2022-10-02T01:17:58.851Z,26.38
2022-10-02T01:20:48.651Z,22.92
2022-10-02T01:23:42.642Z,25.80
2022-10-02T01:26:09.926Z,22.88
2022-10-02T01:28:37.496Z,16.25
2022-10-02T01:31:14.540Z,23.27
2022-10-02T01:33:44.789Z,22.13
2022-10-02T01:36:15.002Z,22.98
2022-10-02T01:38:44.727Z,25.88
2022-10-02T01:41:12.173Z,24.45
2022-10-02T01:43:59.458Z,28.05
2022-10-02T01:46:47.843Z,17.92
2022-10-02T01:49:48.632Z,26.92
2022-10-02T01:52:59.605Z,25.13
2022-10-02T01:56:00.771Z,19.52
2022-10-02T01:58:51.561Z,23.17
2022-10-02T02:01:24.298Z,21.63
2022-10-02T02:04:27.421Z,29.77
2022-10-02T02:07:13.528Z,20.40
2022-10-02T02:10:00.640Z,21.08
2022-10-02T02:12:53.969Z,18.80
2022-10-02T02:15:40.735Z,18.33
2022-10-02T02:18:24.922Z,22.48
2022-10-02T02:21:05.832Z,21.35
2022-10-02T02:23:38.191Z,25.80
2022-10-02T02:26:12.568Z,21.38
2022-10-02T02:31:20.989Z,24.42
2022-10-02T02:33:59.405Z,24.17
2022-10-02T02:36:35.548Z,29.73
2022-10-02T02:39:13.367Z,31.92
2022-10-02T02:41:53.760Z,21.38
2022-10-02T02:44:41.303Z,32.38
2022-10-02T02:47:22.516Z,22.20
2022-10-02T02:50:02.128Z,25.98
2022-10-02T02:52:44.664Z,19.55
2022-10-02T02:55:42.775Z,26.67
2022-10-02T02:58:26.795Z,22.10
2022-10-02T03:00:55.086Z,26.88
2022-10-02T03:03:22.171Z,28.75
2022-10-02T03:05:57.299Z,22.83
2022-10-02T03:08:34.908Z,28.73
2022-10-02T03:11:35.647Z,24.13
2022-10-02T03:15:08.414Z,24.00
2022-10-02T03:18:06.113Z,29.05
2022-10-02T03:21:13.191Z,31.67
2022-10-02T03:23:55.529Z,28.90
2022-10-02T03:26:38.450Z,23.65
2022-10-02T03:29:18.867Z,22.30
2022-10-02T03:31:48.241Z,25.58
2022-10-02T03:34:17.337Z,25.95
2022-10-02T03:36:46.826Z,26.23
2022-10-02T03:39:29.955Z,24.77
2022-10-02T03:41:57.056Z,25.45
2022-10-02T03:44:24.115Z,20.75
2022-10-02T03:46:51.083Z,27.10
2022-10-02T03:49:18.100Z,22.85
2022-10-02T03:51:45.017Z,31.45
2022-10-02T03:54:22.246Z,19.20
2022-10-02T03:57:03.352Z,24.65
2022-10-02T04:00:13.265Z,17.05
2022-10-02T04:02:57.317Z,22.05
2022-10-02T04:05:34.608Z,18.70
2022-10-02T04:08:18.047Z,20.27
2022-10-02T04:11:05.159Z,17.90
2022-10-02T04:13:50.203Z,17.98
2022-10-02T04:16:27.687Z,14.02
2022-10-02T04:19:02.935Z,15.95
2022-10-02T04:21:37.196Z,17.13
2022-10-02T04:24:31.023Z,14.32
2022-10-02T04:27:09.852Z,18.15
2022-10-02T04:30:05.799Z,13.23
2022-10-02T04:32:36.343Z,10.52
2022-10-02T04:35:32.010Z,16.88
2022-10-02T04:38:27.706Z,14.20
2022-10-02T04:41:27.446Z,14.45
2022-10-02T04:44:36.745Z,14.30
2022-10-02T04:47:49.625Z,15.88
2022-10-02T04:50:48.272Z,17.00
2022-10-02T04:53:50.588Z,13.20
2022-10-02T04:56:49.648Z,10.60
2022-10-02T04:59:48.376Z,16.48
2022-10-02T05:02:40.938Z,11.35
2022-10-02T05:05:28.997Z,11.10
2022-10-02T05:08:36.122Z,14.40
2022-10-02T05:11:21.802Z,8.23
2022-10-02T05:14:42.858Z,10.50
2022-10-02T05:17:40.098Z,14.13
2022-10-02T05:20:45.359Z,9.70
2022-10-02T05:23:37.098Z,9.07
2022-10-02T05:26:36.614Z,11.57
2022-10-02T05:29:45.255Z,13.85
2022-10-02T05:32:21.180Z,9.77
2022-10-02T05:35:12.268Z,14.57
2022-10-02T05:38:08.221Z,11.57
2022-10-02T05:41:17.291Z,13.80
2022-10-02T05:44:22.900Z,11.25
2022-10-02T05:47:05.551Z,11.65
2022-10-02T05:49:44.757Z,10.82
2022-10-02T05:52:23.511Z,18.40
2022-10-02T05:54:58.602Z,13.23
2022-10-02T05:58:05.048Z,15.60
2022-10-02T06:00:40.921Z,12.30
2022-10-02T06:03:16.592Z,17.13
2022-10-02T06:06:04.875Z,16.95
2022-10-02T06:08:43.357Z,17.42
2022-10-02T06:11:22.177Z,20.15
2022-10-02T06:14:06.862Z,16.83
2022-10-02T06:19:26.973Z,15.25
2022-10-02T06:22:19.807Z,17.98
2022-10-02T06:25:04.282Z,12.93
2022-10-02T06:27:56.970Z,18.13
2022-10-02T06:30:23.978Z,15.63
2022-10-02T06:33:23.343Z,15.75
2022-10-02T06:36:22.967Z,18.08
2022-10-02T06:39:19.963Z,18.42
2022-10-02T06:42:22.065Z,17.42
2022-10-02T06:45:14.344Z,21.95
2022-10-02T06:48:24.646Z,19.73
2022-10-02T06:51:09.287Z,18.35
2022-10-02T06:57:28.614Z,20.73
2022-10-02T07:00:18.188Z,19.40
2022-10-02T07:03:32.729Z,18.42
2022-10-02T07:06:36.157Z,21.20
2022-10-02T07:09:23.418Z,23.17
2022-10-02T07:12:51.586Z,23.95
2022-10-02T07:15:48.593Z,20.52
2022-10-02T07:19:16.350Z,25.15
2022-10-02T07:22:43.545Z,24.08
2022-10-02T07:25:41.688Z,23.20
2022-10-02T07:28:34.199Z,24.70
2022-10-02T07:31:23.098Z,24.55
2022-10-02T07:34:17.066Z,24.60
2022-10-02T07:37:16.103Z,19.33
2022-10-02T07:40:11.778Z,20.15
2022-10-02T07:42:50.973Z,29.00
2022-10-02T07:45:42.353Z,24.42
2022-10-02T07:48:44.219Z,21.17
2022-10-02T07:51:47.534Z,24.33
2022-10-02T07:55:01.382Z,21.65
2022-10-02T07:58:12.664Z,24.17
2022-10-02T08:00:47.413Z,19.38
2022-10-02T08:03:36.675Z,20.55
2022-10-02T08:06:06.364Z,23.55
2022-10-02T08:08:51.459Z,21.80
2022-10-02T08:11:50.153Z,14.60
2022-10-02T08:14:25.937Z,21.40
2022-10-02T08:17:16.434Z,20.73
2022-10-02T08:19:51.622Z,22.98
2022-10-02T08:22:46.108Z,18.13
2022-10-02T08:25:25.129Z,15.68
2022-10-02T08:28:09.765Z,17.77
2022-10-02T08:30:37.529Z,18.73
2022-10-02T08:33:22.713Z,23.30
2022-10-02T08:36:25.704Z,15.52
2022-10-02T08:39:35.404Z,16.80
2022-10-02T08:42:49.807Z,14.98
2022-10-02T08:46:07.592Z,12.82
2022-10-02T08:49:15.135Z,17.40
2022-10-02T08:52:14.021Z,12.88
2022-10-02T08:55:06.729Z,15.18
2022-10-02T08:58:48.845Z,16.20
2022-10-02T09:01:31.590Z,11.98
2022-10-02T09:04:28.231Z,16.90
2022-10-02T09:07:07.123Z,16.27
2022-10-02T09:09:42.959Z,14.30
2022-10-02T09:12:30.183Z,15.18
2022-10-02T09:15:18.931Z,13.75
2022-10-02T09:18:25.411Z,15.23
2022-10-02T09:21:23.416Z,13.60
2022-10-02T09:24:27.624Z,15.43
2022-10-02T09:27:33.823Z,11.65
2022-10-02T09:30:29.789Z,10.02
2022-10-02T09:33:46.307Z,10.25
2022-10-02T09:36:49.344Z,11.30
2022-10-02T09:39:31.640Z,13.73
2022-10-02T09:42:23.476Z,7.45
2022-10-02T09:45:13.984Z,13.05
2022-10-02T09:48:17.909Z,12.68
2022-10-02T09:51:20.661Z,12.70
2022-10-02T09:54:03.060Z,11.52
2022-10-02T09:56:48.312Z,12.43
2022-10-02T09:59:49.082Z,11.32
2022-10-02T10:02:50.719Z,13.45
2022-10-02T10:06:05.027Z,12.48
2022-10-02T10:09:10.746Z,8.85
2022-10-02T10:12:25.841Z,11.07
2022-10-02T10:15:33.823Z,14.68
2022-10-02T10:18:34.141Z,10.35
2022-10-02T10:21:29.387Z,9.73
2022-10-02T10:24:34.737Z,6.85
2022-10-02T10:27:36.701Z,12.82
2022-10-02T10:30:07.004Z,12.10
2022-10-02T10:32:52.600Z,11.55
2022-10-02T10:36:32.224Z,9.80
2022-10-02T10:39:57.618Z,15.48
2022-10-02T10:43:07.938Z,12.77
2022-10-02T10:45:56.989Z,10.32
2022-10-02T10:48:35.052Z,12.43
2022-10-02T10:51:14.279Z,11.30
2022-10-02T10:54:21.367Z,7.57
2022-10-02T10:57:31.973Z,10.85
2022-10-02T11:00:36.377Z,15.98
2022-10-02T11:03:51.520Z,13.55
2022-10-02T11:07:07.898Z,12.05
2022-10-02T11:10:31.669Z,7.35
2022-10-02T11:13:23.733Z,8.48
2022-10-02T11:16:37.327Z,8.65
2022-10-02T11:19:45.841Z,11.30
2022-10-02T11:22:49.976Z,6.45
2022-10-02T11:26:07.850Z,9.80
2022-10-02T11:28:58.871Z,7.50
2022-10-02T11:31:30.382Z,7.28
2022-10-02T11:34:25.269Z,6.78
2022-10-02T11:39:59.805Z,7.53
2022-10-02T11:42:50.443Z,7.22
2022-10-02T11:45:41.769Z,8.07
2022-10-02T11:48:50.913Z,6.97
2022-10-02T11:51:50.861Z,11.05
2022-10-02T11:55:18.320Z,12.82
2022-10-02T11:57:48.046Z,7.47
2022-10-02T12:00:41.261Z,8.52
2022-10-02T12:03:50.987Z,8.55
2022-10-02T12:06:36.450Z,8.18
2022-10-02T12:09:43.260Z,9.15
2022-10-02T12:12:52.709Z,10.70
2022-10-02T12:15:34.583Z,9.57
2022-10-02T12:18:21.654Z,9.13
2022-10-02T12:21:31.849Z,8.32
2022-10-02T12:24:54.837Z,8.35
2022-10-02T12:28:05.826Z,8.95
2022-10-02T12:30:54.191Z,7.65
2022-10-02T12:33:33.159Z,7.53
2022-10-02T12:36:36.134Z,8.75
2022-10-02T12:39:27.263Z,11.60
2022-10-02T12:42:15.687Z,9.07
2022-10-02T12:45:13.692Z,9.48
2022-10-02T12:48:18.562Z,12.68
2022-10-02T12:51:29.991Z,11.40
2022-10-02T12:54:34.140Z,8.10
2022-10-02T12:57:47.132Z,9.53
2022-10-02T13:00:18.798Z,9.50
2022-10-02T13:03:28.364Z,15.23
2022-10-02T13:06:18.008Z,11.68
2022-10-02T13:09:29.946Z,8.32
2022-10-02T13:13:05.884Z,9.15
2022-10-02T13:16:05.529Z,7.65
2022-10-02T13:19:08.700Z,6.82
2022-10-02T13:22:10.058Z,9.15
2022-10-02T13:25:24.634Z,9.82
2022-10-02T13:28:08.452Z,9.32
2022-10-02T13:31:07.401Z,7.13
2022-10-02T13:34:06.241Z,6.88
2022-10-02T13:36:57.079Z,4.88
2022-10-02T13:40:18.084Z,5.00
2022-10-02T13:42:48.041Z,7.07
2022-10-02T13:45:41.536Z,9.82
2022-10-02T13:48:47.640Z,6.25
2022-10-02T13:51:32.772Z,5.82
2022-10-02T13:54:20.469Z,8.85
2022-10-02T13:57:17.745Z,6.85
2022-10-02T14:00:23.732Z,6.70
2022-10-02T14:02:50.739Z,6.38
2022-10-02T14:06:02.903Z,7.93
2022-10-02T14:08:57.416Z,10.25
2022-10-02T14:11:47.076Z,6.45
2022-10-02T14:14:39.773Z,7.70
2022-10-02T14:17:15.560Z,8.27
2022-10-02T14:20:02.783Z,7.65
2022-10-02T14:22:44.589Z,6.00
2022-10-02T14:26:06.030Z,8.30
2022-10-02T14:29:17.436Z,4.43
2022-10-02T14:32:24.251Z,6.43
2022-10-02T14:35:19.479Z,8.88
2022-10-02T14:38:19.989Z,8.82
2022-10-02T14:40:57.546Z,4.95
2022-10-02T14:43:50.130Z,7.10
2022-10-02T14:46:49.478Z,9.55
2022-10-02T14:49:34.738Z,6.95
2022-10-02T14:52:43.751Z,7.72
2022-10-02T14:55:49.080Z,7.30
2022-10-02T14:58:40.960Z,8.70
2022-10-02T15:01:26.452Z,6.65
2022-10-02T15:04:16.052Z,6.03
2022-10-02T15:07:04.756Z,6.35
2022-10-02T15:10:18.694Z,5.28
2022-10-02T15:13:01.618Z,7.05
2022-10-02T15:15:46.757Z,7.65
2022-10-02T15:18:40.582Z,4.88
2022-10-02T15:21:08.019Z,4.32
2022-10-02T15:23:50.836Z,5.18
2022-10-02T15:26:40.560Z,3.90
2022-10-02T15:29:38.389Z,7.22
2022-10-02T15:32:31.231Z,5.45
2022-10-02T15:35:24.316Z,11.95
2022-10-02T15:38:08.538Z,5.88
2022-10-02T15:40:47.674Z,4.15
2022-10-02T15:43:34.280Z,5.93
2022-10-02T15:46:32.675Z,7.72
2022-10-02T15:49:33.860Z,7.13
2022-10-02T15:52:51.943Z,8.27
2022-10-02T15:55:41.943Z,5.32
2022-10-02T15:58:30.303Z,8.05
2022-10-02T16:01:45.970Z,8.35
2022-10-02T16:04:34.991Z,5.80
2022-10-02T16:07:45.407Z,6.60
2022-10-02T16:10:36.595Z,7.63
2022-10-02T16:13:46.315Z,15.95
2022-10-02T16:16:37.902Z,7.50
2022-10-02T16:19:45.155Z,8.68
2022-10-02T16:22:34.570Z,8.20
2022-10-02T16:25:36.523Z,4.97
2022-10-02T16:28:46.975Z,7.47
2022-10-02T16:32:05.539Z,8.27
2022-10-02T16:34:47.449Z,8.95
2022-10-02T16:37:36.039Z,7.25
2022-10-02T16:40:22.947Z,10.45
2022-10-02T16:43:34.777Z,8.90
2022-10-02T16:46:25.387Z,6.75
2022-10-02T16:49:17.371Z,10.80
2022-10-02T16:52:31.823Z,9.98
2022-10-02T16:55:28.769Z,6.10
2022-10-02T16:58:13.624Z,14.85
2022-10-02T17:00:57.166Z,11.98
2022-10-02T17:03:44.735Z,9.98
2022-10-02T17:06:28.481Z,6.43
2022-10-02T17:09:23.973Z,9.97
2022-10-02T17:12:15.438Z,5.80
2022-10-02T17:15:00.895Z,11.82
2022-10-02T17:17:42.815Z,6.25
2022-10-02T17:20:24.698Z,7.60
2022-10-02T17:23:14.939Z,10.40
2022-10-02T17:26:14.620Z,11.13
2022-10-02T17:28:58.275Z,9.70
2022-10-02T17:31:54.616Z,12.07
2022-10-02T17:34:44.263Z,12.80
2022-10-02T17:37:16.167Z,7.55
2022-10-02T17:40:05.275Z,9.38
2022-10-02T17:43:42.379Z,8.05
2022-10-02T17:46:49.628Z,8.52
2022-10-02T17:49:50.652Z,6.95
2022-10-02T17:52:42.179Z,9.10
2022-10-02T17:55:52.654Z,9.68
2022-10-02T17:59:21.396Z,9.55
2022-10-02T18:02:09.855Z,8.77
2022-10-02T18:04:59.202Z,8.90
2022-10-02T18:07:53.309Z,9.98
2022-10-02T18:11:01.204Z,8.60
2022-10-02T18:13:56.048Z,8.55
2022-10-02T18:17:06.075Z,9.70
2022-10-02T18:19:54.938Z,12.40
2022-10-02T18:23:06.883Z,10.48
2022-10-02T18:25:50.958Z,13.18
2022-10-02T18:28:24.670Z,12.77
2022-10-02T18:31:55.196Z,8.68
2022-10-02T18:35:05.763Z,8.38
2022-10-02T18:37:58.906Z,15.02
2022-10-02T18:40:43.810Z,12.50
2022-10-02T18:43:52.144Z,9.77
2022-10-02T18:46:33.188Z,13.25
2022-10-02T18:49:27.530Z,9.30
2022-10-02T18:52:05.580Z,13.23
2022-10-02T18:55:17.108Z,11.60
2022-10-02T18:58:20.202Z,13.65
2022-10-02T19:00:59.644Z,11.43
2022-10-02T19:03:58.312Z,10.68
2022-10-02T19:06:33.956Z,11.23
2022-10-02T19:09:06.759Z,13.68
2022-10-02T19:12:13.664Z,10.65
2022-10-02T19:14:46.331Z,17.13
2022-10-02T19:17:17.882Z,11.23
2022-10-02T19:19:44.970Z,14.85
2022-10-02T19:22:27.519Z,11.80
2022-10-02T19:25:20.266Z,11.10
2022-10-02T19:27:55.067Z,11.63
2022-10-02T19:30:26.812Z,15.95
2022-10-02T19:33:07.996Z,15.32
2022-10-02T19:35:44.282Z,9.35
2022-10-02T19:38:14.152Z,14.57
2022-10-02T19:40:42.216Z,13.00
2022-10-02T19:43:33.770Z,8.98
2022-10-02T19:46:08.467Z,15.80
2022-10-02T19:48:36.209Z,11.65
2022-10-02T19:51:07.894Z,14.20
2022-10-02T19:53:44.991Z,11.82
2022-10-02T19:56:24.379Z,12.23
2022-10-02T19:59:00.806Z,12.70
2022-10-02T20:01:42.065Z,14.68
2022-10-02T20:04:25.796Z,14.00
2022-10-02T20:07:00.623Z,10.95
2022-10-02T20:09:46.296Z,13.98
2022-10-02T20:12:32.040Z,14.82
2022-10-02T20:15:42.447Z,14.80
2022-10-02T20:18:14.439Z,11.63
2022-10-02T20:20:47.093Z,14.23
2022-10-02T20:23:27.228Z,18.63
2022-10-02T20:25:59.919Z,16.15
2022-10-02T20:28:51.988Z,10.57
2022-10-02T20:31:43.420Z,14.38
2022-10-02T20:34:28.884Z,13.80
2022-10-02T20:37:08.431Z,13.40
2022-10-02T20:39:55.888Z,13.57
2022-10-02T20:42:40.652Z,11.27
2022-10-02T20:45:12.935Z,12.65
2022-10-02T20:48:15.793Z,10.27
2022-10-02T20:50:57.492Z,14.88
2022-10-02T20:54:01.450Z,9.43
2022-10-02T20:57:20.258Z,12.38
2022-10-02T21:00:14.920Z,14.20
2022-10-02T21:03:21.654Z,11.07
2022-10-02T21:06:20.143Z,13.10
2022-10-02T21:09:05.023Z,11.45
2022-10-02T21:12:00.901Z,14.13
2022-10-02T21:14:53.202Z,12.32
2022-10-02T21:17:57.651Z,10.75
2022-10-02T21:21:08.514Z,10.77
2022-10-02T21:23:45.232Z,12.32
2022-10-02T21:27:09.586Z,13.70
2022-10-02T21:30:05.967Z,15.90
2022-10-02T21:33:20.586Z,13.88
2022-10-02T21:36:05.987Z,16.92
2022-10-02T21:39:24.163Z,15.65
2022-10-02T21:42:13.323Z,19.27
2022-10-02T21:45:17.595Z,14.02
2022-10-02T21:48:29.202Z,11.35
2022-10-02T21:51:27.058Z,18.30
2022-10-02T21:54:36.267Z,12.77
2022-10-02T21:57:27.876Z,12.20
2022-10-02T22:00:28.742Z,11.05
2022-10-02T22:03:10.152Z,12.57
2022-10-02T22:05:52.043Z,13.10
2022-10-02T22:08:42.513Z,15.88
2022-10-02T22:11:37.190Z,10.75
2022-10-02T22:14:29.376Z,10.38
2022-10-02T22:17:23.792Z,12.02
2022-10-02T22:20:12.795Z,16.17
2022-10-02T22:23:13.387Z,14.00
2022-10-02T22:26:18.679Z,16.33
2022-10-02T22:28:51.335Z,13.45
2022-10-02T22:31:35.699Z,18.92
2022-10-02T22:37:27.164Z,11.60
2022-10-02T22:40:11.086Z,10.45
2022-10-02T22:42:47.743Z,10.57
2022-10-02T22:45:46.346Z,16.02
2022-10-02T22:48:35.479Z,9.63
2022-10-02T22:51:23.001Z,19.17
2022-10-02T22:54:02.762Z,13.23
2022-10-02T22:56:40.216Z,13.60
2022-10-02T22:59:48.587Z,12.27
2022-10-02T23:02:37.491Z,12.05
2022-10-02T23:05:15.147Z,12.95
2022-10-02T23:07:53.799Z,16.73
2022-10-02T23:10:39.567Z,14.32
2022-10-02T23:13:26.420Z,21.95
2022-10-02T23:16:03.557Z,18.63
2022-10-02T23:18:41.951Z,20.95
2022-10-02T23:21:47.818Z,19.90
2022-10-02T23:24:28.518Z,14.07
2022-10-02T23:27:23.867Z,13.35
2022-10-02T23:30:05.078Z,15.40
2022-10-02T23:32:57.800Z,13.23
2022-10-02T23:35:54.187Z,15.35
2022-10-02T23:38:29.573Z,15.15
2022-10-02T23:41:32.184Z,9.93
2022-10-02T23:44:19.632Z,13.40
2022-10-02T23:46:49.776Z,14.05
2022-10-02T23:49:20.804Z,12.70
2022-10-02T23:52:17.215Z,11.82
2022-10-02T23:55:14.109Z,15.52
2022-10-02T23:58:11.280Z,11.27
